Time;durP1;ratioP1;P1;durP2;ratioP2;P2;SDS_P1;SDS_P2;PMS_P1;PMS_P2;Temp;Humidity;BMP_temperature;BMP_pressure;BME280_temperature;BME280_humidity;BME280_pressure;Samples;Min_cycle;Max_cycle;Signal;HPM_P1;HPM_P2
2021/12/10 00:01:36;;;;;;;;;;;3.20;99.90;;;;;;4948843;28;20075;-73
2021/12/10 00:04:07;;;;;;;;;;;3.10;99.90;;;;;;4949754;28;20134;-74
2021/12/10 00:06:36;;;;;;;;;;;3.10;99.90;;;;;;4948301;28;20066;-73
2021/12/10 00:09:13;;;;;;;;;;;3.00;99.90;;;;;;4946851;28;20067;-73
2021/12/10 00:11:45;;;;;;;;;;;2.90;99.90;;;;;;4947777;28;20163;-73
2021/12/10 00:14:12;;;;;;;;;;;2.80;99.90;;;;;;4949036;28;20083;-74
2021/12/10 00:16:40;;;;;;;;;;;2.80;99.90;;;;;;4947921;28;20067;-73
2021/12/10 00:19:20;;;;;;;;;;;2.80;99.90;;;;;;4948061;28;21140;-73
2021/12/10 00:21:47;;;;;;;;;;;2.70;99.90;;;;;;4948993;28;20058;-73
2021/12/10 00:24:16;;;;;;;;;;;2.70;99.90;;;;;;4948589;28;20052;-74
2021/12/10 00:26:43;;;;;;;;;;;2.60;99.90;;;;;;4948759;28;20053;-74
2021/12/10 00:29:11;;;;;;;;;;;2.70;99.90;;;;;;4947468;28;20150;-73
2021/12/10 00:31:47;;;;;;;;;;;2.70;99.90;;;;;;4947849;28;21027;-73
2021/12/10 00:34:18;;;;;;;;;;;2.80;99.90;;;;;;4948759;28;20166;-74
2021/12/10 00:36:46;;;;;;;;;;;2.80;99.90;;;;;;4947672;28;21132;-73
2021/12/10 00:39:16;;;;;;;;;;;2.80;99.90;;;;;;4948086;28;20075;-73
2021/12/10 00:41:43;;;;;;;;;;;2.80;99.90;;;;;;4948292;28;20076;-74
2021/12/10 00:44:10;;;;;;;;;;;2.70;99.90;;;;;;4948549;28;20059;-73
2021/12/10 00:46:37;;;;;;;;;;;2.80;99.90;;;;;;4948540;28;20163;-73
2021/12/10 00:49:05;;;;;;;;;;;2.70;99.90;;;;;;4948371;28;20079;-73
2021/12/10 00:51:35;;;;;;;;;;;2.60;99.90;;;;;;4947990;28;20213;-73
2021/12/10 00:54:02;;;;;;;;;;;2.60;99.90;;;;;;4947370;28;20052;-74
2021/12/10 00:56:29;;;;;;;;;;;2.50;99.90;;;;;;4947225;28;20060;-74
2021/12/10 00:58:59;;;;;;;;;;;2.50;99.90;;;;;;4947955;28;21183;-73
2021/12/10 01:01:28;;;;;;;;;;;2.40;99.90;;;;;;4947525;28;20086;-74
2021/12/10 01:03:56;;;;;;;;;;;2.40;99.90;;;;;;4958864;28;21197;-73
2021/12/10 01:06:24;;;;;;;;;;;2.40;99.90;;;;;;4962823;28;20151;-73
2021/12/10 01:08:55;;;;;;;;;;;2.40;99.90;;;;;;4966249;28;20094;-73
2021/12/10 01:11:24;;;;;;;;;;;2.40;99.90;;;;;;4966761;28;20085;-73
2021/12/10 01:13:56;;;;;;;;;;;2.60;99.90;;;;;;4967372;28;20068;-73
2021/12/10 01:25:05;;;;;;;;;;;2.50;99.90;;;;;;4945819;28;21067;-73
2021/12/10 01:27:34;;;;;;;;;;;2.50;99.90;;;;;;4966507;28;21211;-73
2021/12/10 01:30:05;;;;;;;;;;;2.40;99.90;;;;;;4966412;28;20108;-73
2021/12/10 01:32:33;;;;;;;;;;;2.40;99.90;;;;;;4967027;28;20110;-73
2021/12/10 01:35:01;;;;;;;;;;;2.40;99.90;;;;;;4967501;28;20109;-73
2021/12/10 01:37:28;;;;;;;;;;;2.40;99.90;;;;;;4966352;28;20179;-73
2021/12/10 01:39:57;;;;;;;;;;;2.40;99.90;;;;;;4966201;28;20142;-73
2021/12/10 01:42:37;;;;;;;;;;;2.40;99.90;;;;;;4966354;28;21086;-73
2021/12/10 01:45:07;;;;;;;;;;;2.40;99.90;;;;;;4966890;28;20060;-73
2021/12/10 01:47:35;;;;;;;;;;;2.40;99.90;;;;;;4967115;28;20083;-73
2021/12/10 01:50:02;;;;;;;;;;;2.30;99.90;;;;;;4966251;28;20142;-74
2021/12/10 01:52:29;;;;;;;;;;;2.30;99.90;;;;;;4967085;28;20176;-73
2021/12/10 01:54:59;;;;;;;;;;;2.30;99.90;;;;;;4966890;28;20163;-73
2021/12/10 01:57:28;;;;;;;;;;;2.20;99.90;;;;;;4966619;28;20069;-73
2021/12/10 01:59:55;;;;;;;;;;;2.20;99.90;;;;;;4966545;28;20060;-73
2021/12/10 02:02:23;;;;;;;;;;;2.20;99.90;;;;;;4967012;28;20158;-73
2021/12/10 02:04:51;;;;;;;;;;;2.20;99.90;;;;;;4966991;28;20061;-73
2021/12/10 02:07:19;;;;;;;;;;;2.30;99.90;;;;;;4966136;28;20142;-73
2021/12/10 02:09:46;;;;;;;;;;;2.30;99.90;;;;;;4965221;28;20060;-72
2021/12/10 02:12:17;;;;;;;;;;;2.30;99.90;;;;;;4966871;28;20151;-73
2021/12/10 02:14:45;;;;;;;;;;;2.30;99.90;;;;;;4967021;28;20248;-74
2021/12/10 02:17:12;;;;;;;;;;;2.30;99.90;;;;;;4967083;28;20302;-73
2021/12/10 02:19:39;;;;;;;;;;;2.30;99.90;;;;;;4966622;28;20082;-73
2021/12/10 02:22:08;;;;;;;;;;;2.40;99.90;;;;;;4967011;28;21166;-73
2021/12/10 02:24:36;;;;;;;;;;;2.40;99.90;;;;;;4966620;28;21297;-73
2021/12/10 02:27:07;;;;;;;;;;;2.40;99.90;;;;;;4964996;28;20179;-73
2021/12/10 02:29:36;;;;;;;;;;;2.50;99.90;;;;;;4966057;28;21142;-72
2021/12/10 02:32:04;;;;;;;;;;;2.50;99.90;;;;;;4966656;28;20158;-72
2021/12/10 02:34:31;;;;;;;;;;;2.50;99.90;;;;;;4970308;28;20338;-73
2021/12/10 02:36:58;;;;;;;;;;;2.50;99.90;;;;;;4969558;28;20091;-73
2021/12/10 02:39:27;;;;;;;;;;;2.50;99.90;;;;;;4969870;28;21009;-73
2021/12/10 02:41:54;;;;;;;;;;;2.50;99.90;;;;;;4970476;28;20084;-74
2021/12/10 02:44:22;;;;;;;;;;;2.50;99.90;;;;;;4970055;28;21015;-72
2021/12/10 02:46:49;;;;;;;;;;;2.50;99.90;;;;;;4969557;28;20188;-73
2021/12/10 02:49:17;;;;;;;;;;;2.50;99.90;;;;;;4969706;28;20069;-74
2021/12/10 02:51:45;;;;;;;;;;;2.60;99.90;;;;;;4969540;28;20068;-73
2021/12/10 02:54:14;;;;;;;;;;;2.60;99.90;;;;;;4970216;28;20060;-73
2021/12/10 02:56:44;;;;;;;;;;;2.60;99.90;;;;;;4969753;28;20148;-73
2021/12/10 02:59:12;;;;;;;;;;;2.60;99.90;;;;;;4969794;28;20073;-73
2021/12/10 03:01:41;;;;;;;;;;;2.60;99.90;;;;;;4969826;28;20107;-73
2021/12/10 03:04:09;;;;;;;;;;;2.60;99.90;;;;;;4969354;28;20060;-73
2021/12/10 03:06:37;;;;;;;;;;;2.70;99.90;;;;;;4969706;28;20162;-73
2021/12/10 03:09:04;;;;;;;;;;;2.70;99.90;;;;;;4968768;28;20068;-73
2021/12/10 03:11:33;;;;;;;;;;;2.70;99.90;;;;;;4969507;28;20060;-72
2021/12/10 03:14:06;;;;;;;;;;;2.70;99.90;;;;;;4969929;28;20154;-73
2021/12/10 03:16:33;;;;;;;;;;;2.70;99.90;;;;;;4968886;28;20069;-73
2021/12/10 03:19:00;;;;;;;;;;;2.70;99.90;;;;;;4968987;28;21148;-73
2021/12/10 03:21:28;;;;;;;;;;;2.70;99.90;;;;;;4969095;28;20113;-73
2021/12/10 03:23:55;;;;;;;;;;;2.70;99.90;;;;;;4969527;28;20060;-73
2021/12/10 03:26:22;;;;;;;;;;;2.70;99.90;;;;;;4968699;28;20091;-73
2021/12/10 03:28:51;;;;;;;;;;;2.70;99.90;;;;;;4969087;28;20103;-73
2021/12/10 03:31:20;;;;;;;;;;;2.70;99.90;;;;;;4968870;28;20060;-73
2021/12/10 03:33:48;;;;;;;;;;;2.70;99.90;;;;;;4969214;28;20069;-73
2021/12/10 03:36:16;;;;;;;;;;;2.70;99.90;;;;;;4968632;28;20061;-73
2021/12/10 03:38:43;;;;;;;;;;;2.70;99.90;;;;;;4968818;28;20077;-72
2021/12/10 03:41:12;;;;;;;;;;;2.80;99.90;;;;;;4968243;28;21117;-73
2021/12/10 03:43:39;;;;;;;;;;;2.80;99.90;;;;;;4967473;28;20085;-73
2021/12/10 03:46:07;;;;;;;;;;;2.80;99.90;;;;;;4968211;28;20162;-74
2021/12/10 03:48:36;;;;;;;;;;;2.80;99.90;;;;;;4968793;28;20068;-73
2021/12/10 03:51:05;;;;;;;;;;;2.80;99.90;;;;;;4968350;28;20212;-73
2021/12/10 03:53:32;;;;;;;;;;;2.80;99.90;;;;;;4968941;28;20153;-73
2021/12/10 03:56:00;;;;;;;;;;;2.70;99.90;;;;;;4968198;28;20162;-74
2021/12/10 03:58:27;;;;;;;;;;;2.70;99.90;;;;;;4968240;28;20171;-73
2021/12/10 04:00:55;;;;;;;;;;;2.70;99.90;;;;;;4968545;28;21244;-73
2021/12/10 04:03:23;;;;;;;;;;;2.70;99.90;;;;;;4969145;28;20100;-73
2021/12/10 04:05:52;;;;;;;;;;;2.70;99.90;;;;;;4968711;28;20159;-74
2021/12/10 04:08:19;;;;;;;;;;;2.70;99.90;;;;;;4968500;28;20069;-73
2021/12/10 04:10:47;;;;;;;;;;;2.70;99.90;;;;;;4968050;28;20174;-73
2021/12/10 04:13:14;;;;;;;;;;;2.70;99.90;;;;;;4969105;28;20117;-73
2021/12/10 04:15:41;;;;;;;;;;;2.70;99.90;;;;;;4968877;28;20086;-73
2021/12/10 04:18:09;;;;;;;;;;;2.70;99.90;;;;;;4970039;28;21096;-73
2021/12/10 04:20:36;;;;;;;;;;;2.70;99.90;;;;;;4968087;28;20077;-74
2021/12/10 04:23:10;;;;;;;;;;;2.80;99.90;;;;;;4968708;28;21194;-73
2021/12/10 04:25:37;;;;;;;;;;;2.80;99.90;;;;;;4968101;28;20092;-73
2021/12/10 04:28:08;;;;;;;;;;;2.80;99.90;;;;;;4968814;28;20142;-73
2021/12/10 04:30:39;;;;;;;;;;;2.70;99.90;;;;;;4968536;28;20060;-73
2021/12/10 04:33:07;;;;;;;;;;;2.70;99.90;;;;;;4967956;28;20292;-72
2021/12/10 04:35:34;;;;;;;;;;;2.60;99.90;;;;;;4967423;28;20076;-73
2021/12/10 04:38:01;;;;;;;;;;;2.60;99.90;;;;;;4967428;28;20083;-73
2021/12/10 04:40:30;;;;;;;;;;;2.60;99.90;;;;;;4968274;28;20077;-72
2021/12/10 04:42:58;;;;;;;;;;;2.50;99.90;;;;;;4966574;28;21307;-73
2021/12/10 04:45:25;;;;;;;;;;;2.50;99.90;;;;;;4958762;28;20077;-73
2021/12/10 04:47:52;;;;;;;;;;;2.50;99.90;;;;;;4967491;28;20158;-73
2021/12/10 04:50:20;;;;;;;;;;;2.40;99.90;;;;;;4967673;28;20141;-73
2021/12/10 04:52:48;;;;;;;;;;;2.50;99.90;;;;;;4967574;28;20161;-72
2021/12/10 04:55:16;;;;;;;;;;;2.40;99.90;;;;;;4967523;28;20077;-73
2021/12/10 04:57:44;;;;;;;;;;;2.50;99.90;;;;;;4967682;28;20074;-73
2021/12/10 05:00:15;;;;;;;;;;;2.50;99.90;;;;;;4968075;28;20097;-73
2021/12/10 05:02:44;;;;;;;;;;;2.50;99.90;;;;;;4967595;28;20092;-74
2021/12/10 05:05:11;;;;;;;;;;;2.50;99.90;;;;;;4967489;28;20217;-73
2021/12/10 05:07:39;;;;;;;;;;;2.50;99.90;;;;;;4966838;28;20158;-73
2021/12/10 05:10:06;;;;;;;;;;;2.50;99.90;;;;;;4992339;22;20074;-71
2021/12/10 05:12:34;;;;;;;;;;;2.50;99.90;;;;;;4964778;28;20171;-71
2021/12/10 05:15:05;;;;;;;;;;;2.60;99.90;;;;;;4967716;28;20069;-74
2021/12/10 05:17:34;;;;;;;;;;;2.60;99.90;;;;;;4968137;28;20153;-74
2021/12/10 05:20:03;;;;;;;;;;;2.60;99.90;;;;;;4966662;28;20069;-73
2021/12/10 05:22:30;;;;;;;;;;;2.70;99.90;;;;;;4967571;28;21177;-74
2021/12/10 05:24:57;;;;;;;;;;;2.70;99.90;;;;;;4967496;28;21096;-74
2021/12/10 05:27:25;;;;;;;;;;;2.80;99.90;;;;;;4966948;28;20060;-74
2021/12/10 05:29:52;;;;;;;;;;;2.80;99.90;;;;;;4967727;28;21148;-74
2021/12/10 05:32:20;;;;;;;;;;;2.80;99.90;;;;;;4967291;28;20069;-74
2021/12/10 05:34:48;;;;;;;;;;;2.90;99.90;;;;;;4967483;28;20060;-73
2021/12/10 05:37:15;;;;;;;;;;;2.90;99.90;;;;;;4966880;28;20150;-74
2021/12/10 05:39:42;;;;;;;;;;;2.90;99.90;;;;;;4966021;28;21061;-74
2021/12/10 05:42:09;;;;;;;;;;;2.90;99.90;;;;;;4967101;28;20097;-74
2021/12/10 05:44:38;;;;;;;;;;;2.90;99.90;;;;;;4967246;28;20149;-74
2021/12/10 05:47:05;;;;;;;;;;;3.00;99.90;;;;;;4968731;28;20221;-74
2021/12/10 05:49:34;;;;;;;;;;;3.00;99.90;;;;;;4971860;28;20166;-74
2021/12/10 05:52:02;;;;;;;;;;;3.00;99.90;;;;;;4966629;28;20162;-74
2021/12/10 05:54:29;;;;;;;;;;;3.00;99.90;;;;;;4967365;28;20085;-75
2021/12/10 05:56:56;;;;;;;;;;;3.00;99.90;;;;;;4966845;28;21166;-74
2021/12/10 05:59:24;;;;;;;;;;;3.00;99.90;;;;;;4966723;28;21174;-74
2021/12/10 06:01:51;;;;;;;;;;;3.00;99.90;;;;;;4961573;28;21111;-74
2021/12/10 06:04:27;;;;;;;;;;;3.10;99.90;;;;;;4960247;28;21947;-74
2021/12/10 06:06:56;;;;;;;;;;;3.10;99.90;;;;;;4958070;28;20085;-74
2021/12/10 06:09:23;;;;;;;;;;;3.10;99.90;;;;;;4970746;28;20179;-73
2021/12/10 06:11:51;;;;;;;;;;;3.10;99.90;;;;;;4970320;28;20178;-74
2021/12/10 06:14:18;;;;;;;;;;;3.10;99.90;;;;;;4970889;28;20082;-74
2021/12/10 06:16:45;;;;;;;;;;;3.10;99.90;;;;;;4970544;28;20080;-73
2021/12/10 06:19:12;;;;;;;;;;;3.10;99.90;;;;;;4968101;28;21160;-74
2021/12/10 06:21:40;;;;;;;;;;;3.10;99.90;;;;;;4968058;28;21330;-74
2021/12/10 06:24:08;;;;;;;;;;;3.10;99.90;;;;;;4967437;28;21131;-74
2021/12/10 06:26:36;;;;;;;;;;;3.10;99.90;;;;;;4967076;28;20069;-74
2021/12/10 06:29:03;;;;;;;;;;;3.10;99.90;;;;;;4967419;28;20076;-74
2021/12/10 06:31:31;;;;;;;;;;;3.10;99.90;;;;;;4967011;28;21135;-74
2021/12/10 06:33:58;;;;;;;;;;;3.10;99.90;;;;;;4966676;28;20118;-74
2021/12/10 06:36:26;;;;;;;;;;;3.10;99.90;;;;;;4970590;28;20074;-74
2021/12/10 06:38:53;;;;;;;;;;;3.10;99.90;;;;;;4970013;28;20091;-74
2021/12/10 06:41:22;;;;;;;;;;;3.10;99.90;;;;;;4970532;28;20267;-74
2021/12/10 06:43:49;;;;;;;;;;;3.10;99.90;;;;;;4985870;28;20077;-73
2021/12/10 06:46:17;;;;;;;;;;;3.00;99.90;;;;;;4979365;28;20171;-74
2021/12/10 06:48:44;;;;;;;;;;;3.00;99.90;;;;;;4969622;28;20082;-73
2021/12/10 06:51:13;;;;;;;;;;;3.00;99.90;;;;;;4970014;28;20126;-74
2021/12/10 06:53:41;;;;;;;;;;;3.00;99.90;;;;;;4969604;28;20105;-74
2021/12/10 06:56:09;;;;;;;;;;;3.00;99.90;;;;;;4969920;28;20060;-74
2021/12/10 06:58:37;;;;;;;;;;;3.00;99.90;;;;;;4969356;28;20068;-73
2021/12/10 07:01:07;;;;;;;;;;;3.00;99.90;;;;;;4969936;28;20340;-74
2021/12/10 07:03:36;;;;;;;;;;;2.90;99.90;;;;;;4970935;28;20076;-73
2021/12/10 07:06:04;;;;;;;;;;;2.90;99.90;;;;;;4970633;28;20085;-74
2021/12/10 07:08:32;;;;;;;;;;;2.90;99.90;;;;;;4977550;28;21197;-73
2021/12/10 07:10:59;;;;;;;;;;;2.90;99.90;;;;;;4969111;28;20085;-74
2021/12/10 07:13:27;;;;;;;;;;;2.90;99.90;;;;;;4969250;28;21142;-74
2021/12/10 07:15:56;;;;;;;;;;;2.90;99.90;;;;;;4986183;28;20092;-73
2021/12/10 07:18:24;;;;;;;;;;;2.90;99.90;;;;;;4969400;28;21678;-73
2021/12/10 07:20:52;;;;;;;;;;;2.90;99.90;;;;;;4970203;28;20215;-72
2021/12/10 07:23:20;;;;;;;;;;;2.90;99.90;;;;;;4987579;28;21088;-73
2021/12/10 07:25:49;;;;;;;;;;;2.90;99.90;;;;;;4988187;28;20215;-71
2021/12/10 07:28:17;;;;;;;;;;;2.90;99.90;;;;;;4987659;28;20069;-71
2021/12/10 07:30:48;;;;;;;;;;;2.90;99.90;;;;;;4987293;28;20069;-72
2021/12/10 07:33:18;;;;;;;;;;;2.90;99.90;;;;;;4988166;28;20291;-72
2021/12/10 07:35:46;;;;;;;;;;;2.80;99.90;;;;;;4986402;28;20286;-73
2021/12/10 07:38:13;;;;;;;;;;;2.80;99.90;;;;;;4986715;28;20105;-73
2021/12/10 07:40:49;;;;;;;;;;;2.80;99.90;;;;;;4969991;28;20075;-73
2021/12/10 07:43:16;;;;;;;;;;;2.80;99.90;;;;;;4987555;28;20106;-73
2021/12/10 07:45:46;;;;;;;;;;;2.80;99.90;;;;;;4986526;28;20232;-73
2021/12/10 07:48:16;;;;;;;;;;;2.80;99.90;;;;;;4970396;28;20286;-72
2021/12/10 07:50:50;;;;;;;;;;;2.90;99.90;;;;;;4987624;28;20069;-72
2021/12/10 07:53:19;;;;;;;;;;;2.90;99.90;;;;;;4987371;28;20069;-72
2021/12/10 07:55:46;;;;;;;;;;;2.90;99.90;;;;;;4964675;28;20271;-72
2021/12/10 07:58:14;;;;;;;;;;;3.00;99.90;;;;;;4975592;28;20104;-72
2021/12/10 08:00:42;;;;;;;;;;;3.00;99.90;;;;;;4968383;28;20070;-72
2021/12/10 08:03:10;;;;;;;;;;;3.00;99.90;;;;;;4968554;28;20074;-72
2021/12/10 08:05:37;;;;;;;;;;;3.00;99.90;;;;;;4967819;28;20061;-71
2021/12/10 08:08:07;;;;;;;;;;;3.00;99.90;;;;;;4968043;28;21196;-72
2021/12/10 08:10:35;;;;;;;;;;;3.00;99.90;;;;;;4971782;28;20078;-71
2021/12/10 08:13:02;;;;;;;;;;;3.00;99.90;;;;;;4971440;28;20080;-73
2021/12/10 08:15:30;;;;;;;;;;;3.10;99.90;;;;;;4968048;28;20086;-72
2021/12/10 08:17:57;;;;;;;;;;;3.10;99.90;;;;;;4969411;28;20085;-75
2021/12/10 08:20:26;;;;;;;;;;;3.10;99.90;;;;;;4972272;28;20068;-72
2021/12/10 08:22:54;;;;;;;;;;;3.10;99.90;;;;;;4979847;28;20068;-73
2021/12/10 08:25:23;;;;;;;;;;;3.10;99.90;;;;;;4948534;28;21037;-73
2021/12/10 08:27:50;;;;;;;;;;;3.10;99.90;;;;;;4949468;28;20150;-73
2021/12/10 08:30:19;;;;;;;;;;;3.20;99.90;;;;;;4948217;28;20069;-74
2021/12/10 08:32:46;;;;;;;;;;;3.20;99.90;;;;;;4948205;28;20083;-74
2021/12/10 08:35:15;;;;;;;;;;;3.20;99.90;;;;;;4965415;28;21062;-74
2021/12/10 08:37:42;;;;;;;;;;;3.20;99.90;;;;;;4950636;28;20099;-74
2021/12/10 08:40:11;;;;;;;;;;;3.30;99.90;;;;;;4959319;28;20098;-74
2021/12/10 08:42:39;;;;;;;;;;;3.30;99.90;;;;;;4971541;28;20150;-73
2021/12/10 08:45:08;;;;;;;;;;;3.30;99.90;;;;;;4978998;28;20231;-73
2021/12/10 08:47:35;;;;;;;;;;;3.30;99.90;;;;;;4970514;28;21157;-73
2021/12/10 08:50:07;;;;;;;;;;;3.30;99.90;;;;;;4968941;28;20276;-73
2021/12/10 08:52:34;;;;;;;;;;;3.30;99.90;;;;;;4980608;28;20068;-73
2021/12/10 08:55:02;;;;;;;;;;;3.30;99.90;;;;;;4988832;28;20179;-75
2021/12/10 08:57:30;;;;;;;;;;;3.30;99.90;;;;;;4987234;28;20189;-74
2021/12/10 08:59:59;;;;;;;;;;;3.30;99.90;;;;;;4985854;28;20153;-73
2021/12/10 09:02:26;;;;;;;;;;;3.40;99.90;;;;;;4986783;28;20068;-73
2021/12/10 09:04:53;;;;;;;;;;;3.40;99.90;;;;;;4987963;28;20140;-73
2021/12/10 09:07:21;;;;;;;;;;;3.40;99.90;;;;;;4969352;28;20109;-74
2021/12/10 09:09:49;;;;;;;;;;;3.40;99.90;;;;;;4968551;28;21053;-73
2021/12/10 09:12:17;;;;;;;;;;;3.40;99.90;;;;;;4967707;28;20060;-74
2021/12/10 09:14:48;;;;;;;;;;;3.40;99.90;;;;;;4966485;28;21188;-74
2021/12/10 09:17:21;;;;;;;;;;;3.40;99.90;;;;;;4968314;28;21152;-73
2021/12/10 09:19:48;;;;;;;;;;;3.40;99.90;;;;;;4967675;28;20076;-73
2021/12/10 09:22:16;;;;;;;;;;;3.40;99.90;;;;;;4973063;28;20076;-73
2021/12/10 09:24:43;;;;;;;;;;;3.40;99.90;;;;;;4972003;28;20075;-73
2021/12/10 09:27:11;;;;;;;;;;;3.40;99.90;;;;;;4968434;28;20195;-74
2021/12/10 09:29:42;;;;;;;;;;;3.40;99.90;;;;;;4968464;28;20068;-73
2021/12/10 09:32:11;;;;;;;;;;;3.40;99.90;;;;;;4969048;28;20060;-74
2021/12/10 09:34:40;;;;;;;;;;;3.50;99.90;;;;;;4968988;28;21234;-73
2021/12/10 09:37:08;;;;;;;;;;;3.50;99.90;;;;;;4968430;28;20296;-73
2021/12/10 09:39:35;;;;;;;;;;;3.50;99.90;;;;;;4972904;28;20086;-73
2021/12/10 09:42:03;;;;;;;;;;;3.50;99.90;;;;;;4979545;28;20158;-74
2021/12/10 09:44:31;;;;;;;;;;;3.50;99.90;;;;;;4979870;28;21105;-74
2021/12/10 09:46:58;;;;;;;;;;;3.60;99.90;;;;;;4958960;28;20103;-74
2021/12/10 09:49:25;;;;;;;;;;;3.60;99.90;;;;;;4971173;28;20077;-72
2021/12/10 09:52:16;;;;;;;;;;;3.70;99.90;;;;;;4967479;28;20084;-74
2021/12/10 09:54:44;;;;;;;;;;;3.70;99.90;;;;;;4978973;28;20076;-74
2021/12/10 09:57:12;;;;;;;;;;;3.70;99.90;;;;;;4980776;28;20092;-74
2021/12/10 09:59:42;;;;;;;;;;;3.70;99.90;;;;;;4987844;28;21258;-74
2021/12/10 10:02:11;;;;;;;;;;;3.70;99.90;;;;;;4988515;28;20190;-74
2021/12/10 10:04:43;;;;;;;;;;;3.70;99.90;;;;;;4988054;28;21051;-74
2021/12/10 10:07:14;;;;;;;;;;;3.80;99.90;;;;;;4988445;28;21149;-74
2021/12/10 10:09:41;;;;;;;;;;;3.80;99.90;;;;;;4988136;28;20170;-74
2021/12/10 10:12:10;;;;;;;;;;;3.80;99.90;;;;;;4987734;28;20075;-74
2021/12/10 10:14:38;;;;;;;;;;;3.80;99.90;;;;;;4988191;28;20149;-74
2021/12/10 10:17:05;;;;;;;;;;;3.80;99.90;;;;;;4988349;28;20114;-74
2021/12/10 10:19:34;;;;;;;;;;;3.80;99.90;;;;;;4983918;28;20069;-74
2021/12/10 10:22:02;;;;;;;;;;;3.80;99.90;;;;;;4980328;28;20244;-74
2021/12/10 10:24:31;;;;;;;;;;;3.80;99.90;;;;;;4980189;28;20210;-73
2021/12/10 10:27:00;;;;;;;;;;;3.80;99.90;;;;;;4988255;28;20097;-74
2021/12/10 10:29:28;;;;;;;;;;;3.80;99.90;;;;;;4988519;28;20161;-74
2021/12/10 10:31:56;;;;;;;;;;;3.80;99.90;;;;;;4987226;28;20202;-75
2021/12/10 10:34:25;;;;;;;;;;;3.80;99.90;;;;;;4987357;28;20102;-74
2021/12/10 10:36:53;;;;;;;;;;;3.80;99.90;;;;;;4986709;28;20066;-74
2021/12/10 10:39:21;;;;;;;;;;;3.70;99.90;;;;;;4986753;28;20099;-74
2021/12/10 10:41:53;;;;;;;;;;;3.70;99.90;;;;;;4986763;28;20108;-74
2021/12/10 10:44:20;;;;;;;;;;;3.70;99.90;;;;;;4967944;28;20094;-74
2021/12/10 10:46:48;;;;;;;;;;;3.60;99.90;;;;;;4965292;28;20282;-74
2021/12/10 10:49:30;;;;;;;;;;;3.60;99.90;;;;;;4981548;28;20170;-74
2021/12/10 10:51:57;;;;;;;;;;;3.50;99.90;;;;;;4968263;28;20076;-73
2021/12/10 10:54:31;;;;;;;;;;;3.50;99.90;;;;;;4972676;28;20069;-74
2021/12/10 10:57:00;;;;;;;;;;;3.50;99.90;;;;;;4978395;28;21038;-74
2021/12/10 10:59:28;;;;;;;;;;;3.50;99.90;;;;;;4972032;28;20170;-74
2021/12/10 11:01:59;;;;;;;;;;;3.40;99.90;;;;;;4986820;28;20288;-74
2021/12/10 11:04:32;;;;;;;;;;;3.40;99.90;;;;;;4971928;28;20069;-74
2021/12/10 11:07:05;;;;;;;;;;;3.40;99.90;;;;;;4971815;28;20068;-73
2021/12/10 11:09:33;;;;;;;;;;;3.50;99.90;;;;;;4970913;28;21120;-74
2021/12/10 11:12:03;;;;;;;;;;;3.40;99.90;;;;;;4971182;28;20095;-74
2021/12/10 11:14:32;;;;;;;;;;;3.40;99.90;;;;;;4988197;28;20075;-74
2021/12/10 11:17:06;;;;;;;;;;;3.50;99.90;;;;;;4988167;28;20061;-74
2021/12/10 11:19:34;;;;;;;;;;;3.50;99.90;;;;;;4971630;28;20077;-74
2021/12/10 11:22:03;;;;;;;;;;;3.50;99.90;;;;;;4987575;28;20083;-74
2021/12/10 11:24:34;;;;;;;;;;;3.50;99.90;;;;;;4971165;28;20158;-74
2021/12/10 11:27:04;;;;;;;;;;;3.50;99.90;;;;;;4987283;28;21274;-73
2021/12/10 11:29:35;;;;;;;;;;;3.50;99.90;;;;;;4970941;28;20498;-74
2021/12/10 11:32:04;;;;;;;;;;;3.50;99.90;;;;;;4988195;28;20153;-74
2021/12/10 11:34:45;;;;;;;;;;;3.50;99.90;;;;;;4987864;28;21119;-74
2021/12/10 11:37:13;;;;;;;;;;;3.50;99.90;;;;;;4970917;28;20134;-74
2021/12/10 11:39:49;;;;;;;;;;;3.50;99.90;;;;;;4969262;28;21251;-74
2021/12/10 11:42:40;;;;;;;;;;;3.50;99.90;;;;;;4986846;28;20091;-74
2021/12/10 11:45:30;;;;;;;;;;;3.50;99.90;;;;;;4968182;28;21137;-74
2021/12/10 11:48:06;;;;;;;;;;;3.50;99.90;;;;;;4970640;28;20076;-74
2021/12/10 11:50:34;;;;;;;;;;;3.50;99.90;;;;;;4971066;28;21259;-74
2021/12/10 11:53:05;;;;;;;;;;;3.50;99.90;;;;;;4971183;28;20067;-74
2021/12/10 11:55:34;;;;;;;;;;;3.60;99.90;;;;;;4970323;28;20973;-74
2021/12/10 11:58:04;;;;;;;;;;;3.50;99.90;;;;;;4969995;28;20191;-74
2021/12/10 12:00:32;;;;;;;;;;;3.60;99.90;;;;;;4970620;28;20060;-73
2021/12/10 12:03:01;;;;;;;;;;;3.60;99.90;;;;;;4970782;28;21184;-74
2021/12/10 12:05:30;;;;;;;;;;;3.60;99.90;;;;;;4969691;28;20066;-74
2021/12/10 12:07:58;;;;;;;;;;;3.70;99.90;;;;;;4969084;28;20094;-74
2021/12/10 12:10:30;;;;;;;;;;;3.70;99.90;;;;;;4975151;28;20321;-74
2021/12/10 12:12:59;;;;;;;;;;;3.70;99.90;;;;;;4983697;28;20166;-75
2021/12/10 12:15:31;;;;;;;;;;;3.70;99.90;;;;;;4967994;28;20098;-74
2021/12/10 12:18:00;;;;;;;;;;;3.70;99.90;;;;;;4972326;28;21243;-74
2021/12/10 12:20:32;;;;;;;;;;;3.70;99.90;;;;;;4968955;28;20097;-75
2021/12/10 12:25:45;;;;;;;;;;;3.80;99.90;;;;;;4971287;28;20069;-73
2021/12/10 12:28:16;;;;;;;;;;;3.80;99.90;;;;;;4969101;28;20068;-71
2021/12/10 12:30:55;;;;;;;;;;;3.80;99.90;;;;;;4973107;28;20113;-73
2021/12/10 12:33:25;;;;;;;;;;;3.80;99.90;;;;;;4972408;28;20090;-73
2021/12/10 12:35:53;;;;;;;;;;;3.80;99.90;;;;;;4964072;28;20307;-73
2021/12/10 12:38:23;;;;;;;;;;;3.90;99.90;;;;;;4970373;28;20077;-72
2021/12/10 12:41:05;;;;;;;;;;;3.80;99.90;;;;;;4970790;28;20208;-73
2021/12/10 12:43:32;;;;;;;;;;;3.90;99.90;;;;;;4968285;28;20170;-73
2021/12/10 12:46:05;;;;;;;;;;;3.90;99.90;;;;;;4967846;28;20069;-73
2021/12/10 12:48:32;;;;;;;;;;;3.90;99.90;;;;;;4967332;28;20275;-72
2021/12/10 12:51:05;;;;;;;;;;;3.80;99.90;;;;;;4967509;28;20061;-72
2021/12/10 12:53:34;;;;;;;;;;;3.80;99.90;;;;;;4967728;28;20069;-73
2021/12/10 12:56:05;;;;;;;;;;;3.80;99.90;;;;;;4963911;28;20076;-74
2021/12/10 12:58:36;;;;;;;;;;;3.80;99.90;;;;;;4978312;28;21189;-74
2021/12/10 13:01:10;;;;;;;;;;;3.80;99.90;;;;;;4978011;28;21034;-72
2021/12/10 13:03:43;;;;;;;;;;;3.80;99.90;;;;;;4979503;28;20170;-73
2021/12/10 13:06:15;;;;;;;;;;;3.80;99.90;;;;;;4986947;28;20086;-73
2021/12/10 13:08:44;;;;;;;;;;;3.80;99.90;;;;;;4973626;28;20252;-74
2021/12/10 13:11:14;;;;;;;;;;;3.80;99.90;;;;;;4969641;28;20069;-74
2021/12/10 13:13:44;;;;;;;;;;;3.80;99.90;;;;;;4967647;28;20069;-73
2021/12/10 13:16:13;;;;;;;;;;;3.80;99.90;;;;;;4967665;28;20069;-73
2021/12/10 13:18:42;;;;;;;;;;;3.80;99.90;;;;;;4967404;28;20069;-72
2021/12/10 13:21:11;;;;;;;;;;;3.80;99.90;;;;;;4968116;28;20189;-72
2021/12/10 13:23:38;;;;;;;;;;;3.80;99.90;;;;;;4968040;28;20083;-73
2021/12/10 13:26:06;;;;;;;;;;;3.80;99.90;;;;;;4967851;28;20106;-74
2021/12/10 13:28:34;;;;;;;;;;;3.80;99.90;;;;;;4968500;28;21111;-74
2021/12/10 13:31:05;;;;;;;;;;;3.80;99.90;;;;;;4971341;28;20081;-74
2021/12/10 13:33:34;;;;;;;;;;;3.80;99.90;;;;;;4981529;28;21251;-76
2021/12/10 13:36:03;;;;;;;;;;;3.80;99.90;;;;;;4974529;28;21209;-74
2021/12/10 13:38:32;;;;;;;;;;;3.70;99.90;;;;;;4960633;28;21261;-74
2021/12/10 13:41:00;;;;;;;;;;;3.70;99.90;;;;;;4972211;28;20061;-75
2021/12/10 13:43:28;;;;;;;;;;;3.70;99.90;;;;;;4967643;28;20171;-73
2021/12/10 13:46:07;;;;;;;;;;;3.80;99.90;;;;;;4967296;28;20076;-74
2021/12/10 13:48:41;;;;;;;;;;;3.70;99.90;;;;;;4966795;28;20076;-72
2021/12/10 13:51:10;;;;;;;;;;;3.60;99.90;;;;;;4967130;28;20159;-73
2021/12/10 13:53:38;;;;;;;;;;;3.60;99.90;;;;;;4967255;28;20084;-73
2021/12/10 13:56:06;;;;;;;;;;;3.60;99.90;;;;;;4962197;28;20084;-72
2021/12/10 13:58:37;;;;;;;;;;;3.60;99.90;;;;;;4973716;28;20094;-72
2021/12/10 14:01:06;;;;;;;;;;;3.60;99.90;;;;;;4969286;28;21104;-74
2021/12/10 14:03:44;;;;;;;;;;;3.60;99.90;;;;;;4967237;28;20107;-71
2021/12/10 14:06:12;;;;;;;;;;;3.60;99.90;;;;;;4967499;28;21142;-70
2021/12/10 14:08:39;;;;;;;;;;;3.70;99.90;;;;;;4982969;28;20100;-70
2021/12/10 14:11:22;;;;;;;;;;;3.70;99.90;;;;;;4966740;28;20163;-70
2021/12/10 14:14:01;;;;;;;;;;;3.70;99.90;;;;;;4966563;28;20219;-69
2021/12/10 14:16:43;;;;;;;;;;;3.70;99.90;;;;;;4966105;28;20077;-70
2021/12/10 14:19:27;;;;;;;;;;;3.70;99.90;;;;;;4966597;28;20067;-72
2021/12/10 14:21:54;;;;;;;;;;;3.60;99.90;;;;;;4967095;28;20101;-73
2021/12/10 14:24:33;;;;;;;;;;;3.60;99.90;;;;;;4982140;28;20077;-78
2021/12/10 14:27:05;;;;;;;;;;;3.60;99.90;;;;;;4973154;28;20084;-71
2021/12/10 14:29:32;;;;;;;;;;;3.50;99.90;;;;;;4970092;28;20179;-70
2021/12/10 14:31:59;;;;;;;;;;;3.50;99.90;;;;;;4969184;28;20117;-71
2021/12/10 14:34:28;;;;;;;;;;;3.50;99.90;;;;;;4990822;28;20060;-70
2021/12/10 14:37:01;;;;;;;;;;;3.50;99.90;;;;;;4990308;28;21152;-71
2021/12/10 14:39:28;;;;;;;;;;;3.40;99.90;;;;;;4990545;28;20205;-71
2021/12/10 14:41:56;;;;;;;;;;;3.40;99.90;;;;;;4991311;28;20060;-71
2021/12/10 14:44:25;;;;;;;;;;;3.40;99.90;;;;;;4990750;28;20072;-71
2021/12/10 14:46:53;;;;;;;;;;;3.40;99.90;;;;;;4980601;28;20077;-71
2021/12/10 14:49:23;;;;;;;;;;;3.40;99.90;;;;;;4967386;28;20171;-71
2021/12/10 14:52:06;;;;;;;;;;;3.30;99.90;;;;;;4989208;28;20162;-72
2021/12/10 14:54:35;;;;;;;;;;;3.30;99.90;;;;;;4978578;28;20068;-71